Velovelo
Português Nederlands 日本語 中文
Español English čeština slovenčina
русский italiano polski norsk
français Deutsch svenska عربي
 
 vorige pagina
 Stuur naar een vriend
 Print dit artikel
 ---> La Marmotte 2009 : du 4001ème au 5295ème

ClasNomPrénom.Cat.C.c..Temps..Ecart
4001 VISSER EGON D 1302 10:41:38 4:32:38
4002 FREZIER OLIVIER E 1475 10:41:44 4:32:44
4003 BEVERS DIRK E 1476 10:41:47 4:32:47
4004 PEACOCK DAVID E 1477 10:41:49 4:32:49
4005 SPERLING LAWRENCE F 553 10:41:51 4:32:51
4006 GILBURT MARK E 1478 10:41:59 4:32:59
4007 ISELI PATRICE E 1479 10:42:01 4:33:01
4008 BOUZEREAU THIERRY E 1480 10:42:02 4:33:02
4009 FLOBERT SAM C 463 10:42:04 4:33:04
4010 ZWAART CHRISTIAAN C 464 10:42:17 4:33:17
4011 STANDAERT CHRISTOPHE D 1303 10:42:18 4:33:18
4012 NIKKELS JAN F 554 10:42:19 4:33:19
4013 WILLEMSEN RUUD E 1481 10:42:19 4:33:19
4014 SCHWARZ MICHAEL E 1482 10:42:23 4:33:23
4015 SPRUIT THEO F 555 10:42:27 4:33:27
4016 HERMANS DIRK E 1483 10:42:37 4:33:37
4017 PITARCH TRONCHO JAVIER D 1304 10:42:38 4:33:38
4018 PETRUS FREDDY F 556 10:42:39 4:33:39
4019 PRUIKKONEN SAMULI D 1305 10:42:45 4:33:45
4020 ANDERBERG TOMAS E 1484 10:42:50 4:33:50
4021 DE RIJK HARRY F 557 10:42:50 4:33:50
4022 BEIJK GEERT JORIS C 465 10:42:52 4:33:52
4023 EMERTON PAUL E 1485 10:42:56 4:33:56
4024 BLEESINH ARJAN C 466 10:43:00 4:34:00
4025 SCAVAZZIN MIRKO E 1486 10:43:03 4:34:03
4026 LEJEUNE CHRISTIAN F 558 10:43:03 4:34:03
4027 BROOKE MICHAEL F 559 10:43:09 4:34:09
4028 MANDARD SYLVAIN C 467 10:43:12 4:34:12
4029 SULLIVAN NICOLE AB 51 10:43:22 4:34:22
4030 PRETTO ALFREDO E 1487 10:43:31 4:34:31
4031 VAN DEN BRAEMBUSSCHE ALEXANDER D 1306 10:43:33 4:34:33
4032 BUCK MICHAEL D 1307 10:43:35 4:34:35
4033 VAN WIJK HARRY F 560 10:43:37 4:34:37
4034 DEMAREE DIRK E 1488 10:43:50 4:34:50
4035 CARRETERO CYRIL D 1308 10:43:55 4:34:55
4036 SMIT ROY E 1489 10:44:03 4:35:03
4037 ROMEU OLIVIER E 1490 10:44:07 4:35:07
4038 VAN LANCKER MARC E 1491 10:44:15 4:35:15
4039 LACOCHE GERARD F 561 10:44:18 4:35:18
4040 ASSE CHRISTOPHE D 1309 10:44:19 4:35:19
4041 VAN BARNEVELD ROGIER D 1310 10:44:19 4:35:19
4042 WOLPUT JOS F 562 10:44:19 4:35:19
4043 MONCUNILL ISIDERE G1 88 10:44:22 4:35:22
4044 SIMONSEN KENT HERHOLT E 1492 10:44:25 4:35:25
4045 VAN DER SCHANS SIJBRAND E 1493 10:44:26 4:35:26
4046 BOYLE HARRY C 468 10:44:27 4:35:27
4047 BLEIJS WIL G1 89 10:44:31 4:35:31
4048 ROELOFSZ IAN D 1311 10:44:31 4:35:31
4049 MARC REAL D 1312 10:44:33 4:35:33
4050 LOHIER CHRISTOPHE E 1494 10:44:33 4:35:33
4051 TJOENS JAN E 1495 10:44:37 4:35:37
4052 HEIKOOP ANNE F 563 10:44:38 4:35:38
4053 MACKENZIE ALEX D 1313 10:44:41 4:35:41
4054 WAMBACQ DONAAT C 469 10:44:42 4:35:42
4055 DEGRYSE PHILIP E 1496 10:44:51 4:35:51
4056 BOURSET JACQUES F 564 10:44:52 4:35:52
4057 PATRIGNANI DEBORAH AB 52 10:45:01 4:36:01
4058 VAN DEN BERG JOEP F 565 10:45:08 4:36:08
4059 FRUTOS MARTINEZ JOSE F 566 10:45:16 4:36:16
4060 HUIJSMAN PATRICK D 1314 10:45:17 4:36:17
4061 MILLINGTON MARTIN WAYNE D 1315 10:45:17 4:36:17
4062 BROEKAERT KRIS C 470 10:45:20 4:36:20
4063 LAMMERS HERMAN E 1497 10:45:21 4:36:21
4064 PASQUALINI MARCO D 1316 10:45:25 4:36:25
4065 HUIJBREGTS MARC E 1498 10:45:25 4:36:25
4066 DUCRUET OLIVIER E 1499 10:45:26 4:36:26
4067 TOURNE FREDERIC E 1500 10:45:26 4:36:26
4068 BRISBOURNE ROBERT D 1317 10:45:31 4:36:31
4069 VANDEWEYER WOUTER C 471 10:45:32 4:36:32
4070 WURTH CLAUDE D 1318 10:45:37 4:36:37
4071 ROUXEL DAVID D 1319 10:45:53 4:36:53
4072 DE HOON PAUL F 567 10:45:55 4:36:55
4073 SUBIOTTO ROMANO E 1501 10:45:56 4:36:56
4074 BOVENSCHEN ALEX D 1320 10:45:57 4:36:57
4075 SMET IVAN D 1321 10:45:58 4:36:58
4076 VAN DER WATEREN GERKO E 1502 10:45:58 4:36:58
4077 PHILSON CHRISTOPHER E 1503 10:46:00 4:37:00
4078 CARLOS ROYO E 1504 10:46:02 4:37:02
4079 VAN BELLE KOEN C 472 10:46:02 4:37:02
4080 DELGADO CARRION LUIS C 473 10:46:02 4:37:02
4081 STROOBANT DIRK E 1505 10:46:03 4:37:03
4082 BROOM DANIEL D 1322 10:46:04 4:37:04
4083 BLOMMAERT WIM E 1506 10:46:06 4:37:06
4084 FERREIRA DA SILVA JOAQUIM E 1507 10:46:10 4:37:10
4085 FARIA PAULO E 1508 10:46:13 4:37:13
4086 NEVES NUNO E 1509 10:46:13 4:37:13
4087 JORGENSEN KARTSTEN E 1510 10:46:14 4:37:14
4088 DOOMS INGO AB 53 10:46:21 4:37:21
4089 KOLKMAN ARJAN E 1511 10:46:23 4:37:23
4090 LAFRAISE LAURENT E 1512 10:46:27 4:37:27
4091 VOSKAMP WOUTER D 1323 10:46:28 4:37:28
4092 SMITH ANDREW D 1324 10:46:28 4:37:28
4093 HOEFNAGEL SJOERD D 1325 10:46:28 4:37:28
4094 GRAVEN GERT JAN F 568 10:46:38 4:37:38
4095 BOUCHIER MICHAEL E 1513 10:46:47 4:37:47
4096 WISEMAN BRENDAN E 1514 10:46:50 4:37:50
4097 NILLES SAMUEL D 1326 10:46:50 4:37:50
4098 STRIKWERDA SIPKE F 569 10:46:54 4:37:54
4099 MULDREW WILLIAM D 1327 10:47:02 4:38:02
4100 DE CONINCK WILLEM F 570 10:47:08 4:38:08
4101 LHOMME DAN D 1328 10:47:16 4:38:16
4102 HAMANN MICHAEL E 1515 10:47:17 4:38:17
4103 GREEN KARL E 1516 10:47:30 4:38:30
4104 VERMEULEN BART D 1329 10:47:31 4:38:31
4105 BOUCKAERT NICOLAS C 474 10:47:43 4:38:43
4106 CURTIS MARK D 1330 10:47:50 4:38:50
4107 WALSH ROGER D 1331 10:47:51 4:38:51
4108 TIZZONI GIUSEPPE E 1517 10:47:56 4:38:56
4109 KAVSEK RAYMOND E 1518 10:48:00 4:39:00
4110 SHAW PETER D 1332 10:48:03 4:39:03
4111 SHEPHERD CRAIG E 1519 10:48:07 4:39:07
4112 VAN WEGEN JOS F 571 10:48:08 4:39:08
4113 MARTINEZ LUIS E 1520 10:48:08 4:39:08
4114 DE JAGER CEES JAN D 1333 10:48:19 4:39:19
4115 LINNERT HEIKO E 1521 10:48:23 4:39:23
4116 PASTOR DONAT VICENTE E 1522 10:48:25 4:39:25
4117 VIVARELLI PAUL F 572 10:48:25 4:39:25
4118 MERKS ARNOLD F 573 10:48:26 4:39:26
4119 ROSSI PIERRE F 574 10:48:27 4:39:27
4120 TORNOE HENRIK E 1523 10:48:29 4:39:29
4121 RICE CLIFF E 1524 10:48:30 4:39:30
4122 VLAYEN PAUL E 1525 10:48:30 4:39:30
4123 SWINHOE ALAN E 1526 10:48:32 4:39:32
4124 GALE EDWARD D 1334 10:48:45 4:39:45
4125 BROOK DANIEL E 1527 10:48:46 4:39:46
4126 BOWLES GLEN E 1528 10:48:48 4:39:48
4127 VALCKE ERIC F 575 10:48:52 4:39:52
4128 NIELSEN HENRIK F 576 10:49:01 4:40:01
4129 VAN SPILBEECK BAUDOUIN F 577 10:49:11 4:40:11
4130 STEUERNAGEL DIRK D 1335 10:49:11 4:40:11
4131 MOLYNEUX SIMON E 1529 10:49:18 4:40:18
4132 LEONE GIUSEPPE F 578 10:49:23 4:40:23
4133 DE BACKER BENOIT D 1336 10:49:24 4:40:24
4134 DANREZ JEAN F 579 10:49:25 4:40:25
4135 PARI STEFANO E 1530 10:49:31 4:40:31
4136 ROSSEEL PASCAL D 1337 10:49:35 4:40:35
4137 MCFAUL JOHN D 1338 10:49:49 4:40:49
4138 DIELS DOMIN F 580 10:49:50 4:40:50
4139 IVERSEN SOEREN G 12 10:49:53 4:40:53
4140 BEZEMER JURN D 1339 10:49:57 4:40:57
4141 RICHARDS BOB G2 10 10:50:01 4:41:01
4142 VAN PROOIJEN PIETER G1 90 10:50:03 4:41:03
4143 BOISSON FRANCOIS D 1340 10:50:03 4:41:03
4144 MAUREL LUC F 581 10:50:05 4:41:05
4145 SCHOENENBERG HENRI E 1531 10:50:07 4:41:07
4146 LYKKE FREDDY E 1532 10:50:15 4:41:15
4147 LAMMERS HENK F 582 10:50:16 4:41:16
4148 JESSEN PREBEN G1 91 10:50:18 4:41:18
4149 KIENS ARTHUR F 583 10:50:20 4:41:20
4150 VEPSALAINEN KIM F 584 10:50:30 4:41:30
4151 MERTENS PATRICK E 1533 10:50:31 4:41:31
4152 RISSANEN TARJA B 8 10:50:32 4:41:32
4153 KENNEDY MICHAEL F 585 10:50:36 4:41:36
4154 CARRILLO GONZALEZ ALBERTO E 1534 10:50:38 4:41:38
4155 DEREYCKE BRUNO D 1341 10:50:48 4:41:48
4156 NATHANSON CARL MICHAEL E 1535 10:50:48 4:41:48
4157 GRIET JOHN F 586 10:50:50 4:41:50
4158 KELLY SHAUN E 1536 10:50:53 4:41:53
4159 NIELSEN KIM FRANK D 1342 10:50:55 4:41:55
4160 HOUWELING RON E 1537 10:50:55 4:41:55
4161 MARTINEZ MANUEL F 587 10:50:57 4:41:57
4162 DE KOK CASPAR D 1343 10:50:58 4:41:58
4163 HADDOCK CHRISTOPHER E 1538 10:51:02 4:42:02
4164 DELTENRE CEDRIC D 1344 10:51:02 4:42:02
4165 HANSEN CLAUS ENGHUUS E 1539 10:51:05 4:42:05
4166 TIJSEN JAC E 1540 10:51:07 4:42:07
4167 BRACKE WIM F 588 10:51:13 4:42:13
4168 HEBBEN PIERRE E 1541 10:51:14 4:42:14
4169 MOONEN KARINA E 1542 10:51:20 4:42:20
4170 GOUGH PAUL D 1345 10:51:21 4:42:21
4171 ALAI GUISEPPE F 589 10:51:23 4:42:23
4172 GLEED STEFAN D 1346 10:51:28 4:42:28
4173 BERRY MICHAEL F 590 10:51:29 4:42:29
4174 GALENDE GUERRA ISAIAS E 1543 10:51:29 4:42:29
4175 ROBERTS JOSH C 475 10:51:35 4:42:35
4176 URRETXUA MANU F 591 10:51:36 4:42:36
4177 COLLENTINE BRIAN D 1347 10:51:39 4:42:39
4178 PANH VUTHIK D 1348 10:51:43 4:42:43
4179 PEDERSEN POUL BAK E 1544 10:51:45 4:42:45
4180 BEUKEMA HANS D 1349 10:51:45 4:42:45
4181 DE CLERCQ GUY F 592 10:51:47 4:42:47
4182 PARMENTIER GUY F 593 10:51:47 4:42:47
4183 WILLEMS LUC E 1545 10:51:52 4:42:52
4184 JILESEN TONY G2 11 10:51:52 4:42:52
4185 SINCENNES ANDRE E 1546 10:51:55 4:42:55
4186 DELAERE WOUTER E 1547 10:51:56 4:42:56
4187 REICHWEIN MARCO E 1548 10:52:00 4:43:00
4188 BARNARD JULIAN F 594 10:52:07 4:43:07
4189 MORRISON ANDREW E 1549 10:52:08 4:43:08
4190 TOONEN ADRIAAN F 595 10:52:18 4:43:18
4191 ALTALAGUERRI DUBAL JOSE F 596 10:52:18 4:43:18
4192 ELIJZEN DICK F 597 10:52:19 4:43:19
4193 CORIN ARNAUD D 1350 10:52:19 4:43:19
4194 JELINEK DARYL E 1550 10:52:21 4:43:21
4195 MACFADYEN GARY E 1551 10:52:24 4:43:24
4196 MARVIE ROLAND G1 92 10:52:28 4:43:28
4197 DECKEYRE EDDY D 1351 10:52:33 4:43:33
4198 SUIRE TONY D 1352 10:52:33 4:43:33
4199 JUAREZ JOSEPH F 598 10:52:33 4:43:33
4200 HOLLAND ROBERT F 599 10:52:35 4:43:35
4201 BAINES BARRY C 476 10:52:43 4:43:43
4202 MAGEUX JULIEN D 1353 10:52:43 4:43:43
4203 DEBLAERE VALERIE A 29 10:52:46 4:43:46
4204 VAN DER VAART JAN E 1552 10:52:55 4:43:55
4205 DIJKSTRA JOOP E 1553 10:52:58 4:43:58
4206 GARCIA XABIER E 1554 10:52:58 4:43:58
4207 ECHEVERRIA MIKEL D 1354 10:52:59 4:43:59
4208 HOSPITAL IPARRAGIRRE ASIER D 1355 10:53:01 4:44:01
4209 LENNE JEAN-CLAUDE F 600 10:53:02 4:44:02
4210 BAZTERRIKA LIZARAZU IKER D 1356 10:53:02 4:44:02
4211 DORRONSORO INAKI D 1357 10:53:02 4:44:02
4212 PRIETO ARGARATE IÑAKI C 477 10:53:05 4:44:05
4213 POULSEN PREBEN G1 93 10:53:09 4:44:09
4214 VLOEDGRAVEN JAAP C 478 10:53:10 4:44:10
4215 VINCENT JACKY E 1555 10:53:16 4:44:16
4216 DENIL FREDERIC F 601 10:53:21 4:44:21
4217 MAUME JACQUES F 602 10:53:21 4:44:21
4218 HUMPHRIES NIGEL E 1556 10:53:22 4:44:22
4219 O BRANNAGAIN DOIMINIC E 1557 10:53:29 4:44:29
4220 HALL ELIZABETH AB 54 10:53:31 4:44:31
4221 BLONTROCK RUDY E 1558 10:53:31 4:44:31
4222 FERRER FREDERIC E 1559 10:53:38 4:44:38
4223 CORDER ROBIN E 1560 10:53:44 4:44:44
4224 HOWLAND MARK E 1561 10:53:46 4:44:46
4225 DOUGLAS COLIN E 1562 10:54:00 4:45:00
4226 MARQUES CHRISTOPHE D 1358 10:54:02 4:45:02
4227 BJERREGAARD JORN E 1563 10:54:02 4:45:02
4228 GARCIA LOPEZ ALFONSO E 1564 10:54:03 4:45:03
4229 LIPS IGNACE D 1359 10:54:04 4:45:04
4230 MUIS MONIQUE AB 55 10:54:06 4:45:06
4231 SAUERWEIN CLAUDE F 603 10:54:06 4:45:06
4232 BERNARDO ROMERO GARCIA F 604 10:54:11 4:45:11
4233 BERT ANTONY C 479 10:54:11 4:45:11
4234 ROBERTSON GARNER E 1565 10:54:11 4:45:11
4235 OLSEN MICHAEL E 1566 10:54:19 4:45:19
4236 BRENNECKE MICHAEL E 1567 10:54:23 4:45:23
4237 KEMPEL CLAUS D 1360 10:54:28 4:45:28
4238 OUDMAN YVO C 480 10:54:33 4:45:33
4239 BOYLE WILLIAM D 1361 10:54:35 4:45:35
4240 GRAAFLAND NICOLAAS MATTHIAS C 481 10:54:43 4:45:43
4241 BRUCE IVAN D 1362 10:54:49 4:45:49
4242 BROWN STUART F 605 10:54:51 4:45:51
4243 PATKOWSKI ROBERT D 1363 10:54:52 4:45:52
4244 WALSH BILLY C 482 10:54:55 4:45:55
4245 KEUS RON E 1568 10:55:01 4:46:01
4246 VEURINK JAN C 483 10:55:02 4:46:02
4247 COSYNS BART C 484 10:55:06 4:46:06
4248 NIELSEN BENT G1 94 10:55:06 4:46:06
4249 FINLAY ROSS D 1364 10:55:08 4:46:08
4250 DE ZUTTER GEERT E 1569 10:55:08 4:46:08
4251 NOLDEN JEROEN D 1365 10:55:11 4:46:11
4252 TEN HOOPE JEROEN D 1366 10:55:12 4:46:12
4253 WATSON PETER D 1367 10:55:17 4:46:17
4254 KOSTER MAIK D 1368 10:55:27 4:46:27
4255 VRIJHOEVEN GIDEON D 1369 10:55:33 4:46:33
4256 BEUCKMANN MARTIN E 1570 10:55:34 4:46:34
4257 DEMARCHE LEOPOLD G2 12 10:55:36 4:46:36
4258 EXETER NEIL D 1370 10:55:36 4:46:36
4259 MERCADO HERRERA GREGORIO D 1371 10:55:42 4:46:42
4260 BALCELLS JOAN F 606 10:55:42 4:46:42
4261 SLUYTER STEVEN E 1571 10:55:42 4:46:42
4262 MARQUEZ DANIEL F 607 10:55:45 4:46:45
4263 POULAIN SEBASTIEN D 1372 10:55:50 4:46:50
4264 MENARD FRANCK D 1373 10:55:57 4:46:57
4265 CASTRO JOSE MANUEL E 1572 10:56:07 4:47:07
4266 VAN DE HOORN JANNES E 1573 10:56:09 4:47:09
4267 PERKS DAVE F 608 10:56:11 4:47:11
4268 EGGAR HELEN AB 56 10:56:15 4:47:15
4269 VERBRAEKEN VINCENT D 1374 10:56:17 4:47:17
4270 PRITCHARD MARTIN E 1574 10:56:23 4:47:23
4271 KALKSMA HANS E 1575 10:56:26 4:47:26
4272 GARAI ENEKO D 1375 10:56:40 4:47:40
4273 BAZZAN ANDREA ENZO E 1576 10:56:47 4:47:47
4274 VAN DE VIS AD F 609 10:56:52 4:47:52
4275 DEPREYTERE JAN E 1577 10:56:52 4:47:52
4276 LINDEGAARD FINN E 1578 10:57:01 4:48:01
4277 RIVOLA GIANNI F 610 10:57:10 4:48:10
4278 VAN PUYMBROECK ALEX E 1579 10:57:14 4:48:14
4279 SORENSEN TORBEN F 611 10:57:15 4:48:15
4280 BORG BRIAN E 1580 10:57:15 4:48:15
4281 GARCES LOPEZ JOSE MANUEL E 1581 10:57:27 4:48:27
4282 DE SMEDT HANS D 1376 10:57:28 4:48:28
4283 HALDAGER NIELSEN CHRIS E 1582 10:57:29 4:48:29
4284 VISSERS MARC D 1377 10:57:40 4:48:40
4285 JONES CHRIS E 1583 10:57:47 4:48:47
4286 AMMERLAAN HARM D 1378 10:57:58 4:48:58
4287 VAN STRALEN MARIS A 30 10:57:58 4:48:58
4288 VAN DER EIJK OLAF D 1379 10:58:00 4:49:00
4289 THOMSEN DENNIS C 485 10:58:11 4:49:11
4290 CLERMONT LAURENT E 1584 10:58:12 4:49:12
4291 MCGRADY MICHAEL E 1585 10:58:13 4:49:13
4292 RUNO PETER D 1380 10:58:14 4:49:14
4293 DE JONG GERT E 1586 10:58:16 4:49:16
4294 MARCHAL RAYMOND D 1381 10:58:17 4:49:17
4295 ANDERSEN TRANBERG CHRISTIAN C 486 10:58:20 4:49:20
4296 SPINEDA FLAVIO F 612 10:58:26 4:49:26
4297 RASMUSSEN ASBJORN C 487 10:58:30 4:49:30
4298 RICHARDSON PETER E 1587 10:58:31 4:49:31
4299 COMER SEAN E 1588 10:58:33 4:49:33
4300 DE DROOG RAYMOND D 1382 10:58:40 4:49:40
4301 BOBERG FREDRIK E 1589 10:58:42 4:49:42
4302 STEWART WILLIAM D 1383 10:58:48 4:49:48
4303 MOSCA CHRISTIAN D 1384 10:58:53 4:49:53
4304 HAMMING JUST E 1590 10:58:53 4:49:53
4305 DONDT OLIVIER E 1591 10:58:55 4:49:55
4306 JOHANSEN LASSE D 1385 10:58:57 4:49:57
4307 ADRIAENSEN HANS F 613 10:58:58 4:49:58
4308 O DONNELL PAUL E 1592 10:59:00 4:50:00
4309 SORENSEN PER THY E 1593 10:59:02 4:50:02
4310 SEGHERS DIRK E 1594 10:59:09 4:50:09
4311 BALDWIN LEE E 1595 10:59:22 4:50:22
4312 TOPPETS JOSEPH F 614 10:59:23 4:50:23
4313 MACHIELSEN SJEF F 615 10:59:24 4:50:24
4314 MACHIELSEN ANTON F 616 10:59:32 4:50:32
4315 DORTMUNDT BAS D 1386 10:59:35 4:50:35
4316 MC AINSH ANDREW D 1387 10:59:41 4:50:41
4317 SVOP JOHN F 617 10:59:41 4:50:41
4318 CRADDEN CONOR E 1596 10:59:42 4:50:42
4319 SELLERI CLAUDIO F 618 10:59:45 4:50:45
4320 ASSIRELLI CLAUDIA AB 57 10:59:57 4:50:57
4321 SHARPE JEREMY C 488 10:59:57 4:50:57
4322 SOLIGNANI GUILIANO F 619 10:59:58 4:50:58
4323 AUSMA WILLEM F 620 10:59:58 4:50:58
4324 LANCUCKI KRYSZTOF G1 95 11:00:04 4:51:04
4325 EVERS GERARD F 621 11:00:09 4:51:09
4326 NOSSENT PIERRE D 1388 11:00:09 4:51:09
4327 KETTERLING KEITH E 1597 11:00:10 4:51:10
4328 KROON BAS D 1389 11:00:20 4:51:20
4329 SCHULTZ TED E 1598 11:00:21 4:51:21
4330 DE TROYER GUNTHER E 1599 11:00:22 4:51:22
4331 BROWNE BARRY D 1390 11:00:22 4:51:22
4332 PHILLIPS MATTHEW E 1600 11:00:25 4:51:25
4333 WRATHER STEPHEN E 1601 11:00:27 4:51:27
4334 BUIJS PIETER C 489 11:00:27 4:51:27
4335 VASSENT FREDERIQUE AB 58 11:00:28 4:51:28
4336 ROELOFFS LEO F 622 11:00:32 4:51:32
4337 VERMEULEN FREEK C 490 11:00:34 4:51:34
4338 DIDERIKSEN MAJ A 31 11:00:40 4:51:40
4339 RALBJERG JESPER E 1602 11:00:40 4:51:40
4340 DE REGT ARIE F 623 11:00:41 4:51:41
4341 BARDINI DAVID D 1391 11:00:43 4:51:43
4342 ZIEREN DENNIS D 1392 11:00:44 4:51:44
4343 BIESUZ SERGE E 1603 11:00:46 4:51:46
4344 WILLIAMS MARTYN E 1604 11:00:47 4:51:47
4345 VAN DER VEEN BEN C 491 11:00:49 4:51:49
4346 KOPS JOHN D 1393 11:00:50 4:51:50
4347 CULLINGAN MICHELE A 32 11:00:53 4:51:53
4348 HANSEN JORN KIM F 624 11:00:59 4:51:59
4349 VANDERHAEGHEN ROLAND E 1605 11:01:04 4:52:04
4350 GRESSER MARCEL F 625 11:01:09 4:52:09
4351 VAN KERCKHOVE STEFAAN E 1606 11:01:10 4:52:10
4352 JOURDAIN BERNARD G1 96 11:01:10 4:52:10
4353 VILLEDIEU PASCAL E 1607 11:01:11 4:52:11
4354 VERMEULEN ARTHUR E 1608 11:01:15 4:52:15
4355 HOOGENDOORN MAARTEN D 1394 11:01:26 4:52:26
4356 CAUNT IAN E 1609 11:01:28 4:52:28
4357 VERPLANCKE M E 1610 11:01:28 4:52:28
4358 VAN DOORSLAER JAN C 492 11:01:37 4:52:37
4359 DE GRAEVE THOMAS C 493 11:01:37 4:52:37
4360 HODSON SIMON E 1611 11:01:39 4:52:39
4361 JANSEN MARTIN E 1612 11:01:40 4:52:40
4362 MAES STEFAAN E 1613 11:01:43 4:52:43
4363 VANHAUWAERT PIET E 1614 11:01:43 4:52:43
4364 FRAGUAS BRAVO IGNACIO D 1395 11:01:55 4:52:55
4365 BLANCO LLANEZA JAVIER D 1396 11:01:56 4:52:56
4366 CALOTO FERNANDEZ JAVIER E 1615 11:01:57 4:52:57
4367 WOUDA PIETER Elit 7 11:02:01 4:53:01
4368 VAN ROSSEM DERK D 1397 11:02:05 4:53:05
4369 HENSON STUART E 1616 11:02:14 4:53:14
4370 STATSBADER CHRISTOPH D 1398 11:02:14 4:53:14
4371 DE HAAN ANNEMIEK C 494 11:02:34 4:53:34
4372 VAN BOXSTAEL DANNY E 1617 11:02:36 4:53:36
4373 HEWITT CHRIS C 495 11:02:42 4:53:42
4374 O BRIEN GARON C 496 11:02:42 4:53:42
4375 SHAW MICHAEL D 1399 11:02:42 4:53:42
4376 MOORE D 1400 11:02:44 4:53:44
4377 GOMANNE PATRICK D 1401 11:02:50 4:53:50
4378 KONIJN ROBERT D 1402 11:02:55 4:53:55
4379 MENSEN EWALD E 1618 11:02:56 4:53:56
4380 BAKEN MICHAEL F 626 11:03:07 4:54:07
4381 COCCO MARIO E 1619 11:03:12 4:54:12
4382 VAN DER HORST RICHARD D 1403 11:03:28 4:54:28
4383 VAN AERSCHOT LUC F 627 11:03:28 4:54:28
4384 BOWMAN ANDREW D 1404 11:03:30 4:54:30
4385 QUIROGA MARIO D 1405 11:03:32 4:54:32
4386 VAN DE LUYTGAARDEN ADRIANUS E 1620 11:03:34 4:54:34
4387 EISING FRANS F 628 11:03:39 4:54:39
4388 SNOWDEN JOHN E 1621 11:03:42 4:54:42
4389 BRIENS ERICK D 1406 11:03:55 4:54:55
4390 COLAS CEDRIC C 497 11:03:56 4:54:56
4391 STRUIJS AD E 1622 11:04:00 4:55:00
4392 LOUKANI DAVID D 1407 11:04:04 4:55:04
4393 CHAMOURIN MARC E 1623 11:04:05 4:55:05
4394 CHAPMAN DUNCAN D 1408 11:04:05 4:55:05
4395 FAGH JOS F 629 11:04:06 4:55:06
4396 SCHRAMA CRONELIS F 630 11:04:08 4:55:08
4397 VERBEEK JEAN LUC F 631 11:04:11 4:55:11
4398 VAN DEN DUNGEN JOOP F 632 11:04:15 4:55:15
4399 EVANS RICHARD D 1409 11:04:24 4:55:24
4400 ROUX CHRISTIANE B 9 11:04:26 4:55:26
4401 ROUX ALAIN F 633 11:04:28 4:55:28
4402 LANGHOFF ALLAN F 634 11:04:28 4:55:28
4403 JOHANSEN TROELS D 1410 11:04:29 4:55:29
4404 BEKKERS FRANK C 498 11:04:29 4:55:29
4405 SCHOEMAKER MAARTEN C 499 11:04:30 4:55:30
4406 DEKKER BOUDEWIJN C 500 11:04:30 4:55:30
4407 BRUNO CACHO CIRES E 1624 11:04:31 4:55:31
4408 HARRISON JONNY C 501 11:04:36 4:55:36
4409 DE MEYER LUC E 1625 11:04:38 4:55:38
4410 MICHALON PATRICK E 1626 11:04:42 4:55:42
4411 PEDERSEN MORTEN JUUL E 1627 11:04:50 4:55:50
4412 JENSEN JAN ROD E 1628 11:04:51 4:55:51
4413 FELLOWS DOMINC D 1411 11:05:00 4:56:00
4414 BROWN STEPHEN E 1629 11:05:01 4:56:01
4415 BISSIG STEPHAN E 1630 11:05:08 4:56:08
4416 JANSEN ERNO E 1631 11:05:20 4:56:20
4417 VERMEULEN BART E 1632 11:05:21 4:56:21
4418 WILLIAMS EMMA A 33 11:05:26 4:56:26
4419 ROSSI FRANCK D 1412 11:05:31 4:56:31
4420 BOUCHER FREDERIC E 1633 11:05:32 4:56:32
4421 COLLINGE RICHARD D 1413 11:05:36 4:56:36
4422 SUKKEL ARJEN E 1634 11:05:38 4:56:38
4423 DUCKETT TIM E 1635 11:05:50 4:56:50
4424 HENRIK JØRGENSEN E 1636 11:05:50 4:56:50
4425 BECKER FRED E 1637 11:05:54 4:56:54
4426 SCHORREEL NICO D 1414 11:05:55 4:56:55
4427 QUINTANA JEROME D 1415 11:06:06 4:57:06
4428 VERNET SEBASTIEN D 1416 11:06:07 4:57:07
4429 BAUM PETER G1 97 11:06:08 4:57:08
4430 KRISTENSEN LEIF G1 98 11:06:11 4:57:11
4431 RONDAY KAREL E 1638 11:06:16 4:57:16
4432 BOON ROBERT E 1639 11:06:19 4:57:19
4433 BOONAERTS GERRIT D 1417 11:06:21 4:57:21
4434 PEPELS FRANS G1 99 11:06:22 4:57:22
4435 MEUWISSEN GER F 635 11:06:22 4:57:22
4436 LARRARTE OSINALDE INIGO C 502 11:06:29 4:57:29
4437 MCLOUGHLIN LIAM F 636 11:06:33 4:57:33
4438 KRIEGER ALEXANDER E 1640 11:06:38 4:57:38
4439 THONNEY LUDOVIC D 1418 11:06:40 4:57:40
4440 JULLENS HERMAN E 1641 11:06:46 4:57:46
4441 JODOCY JOS F 637 11:06:49 4:57:49
4442 VAN TORRE JAN E 1642 11:06:49 4:57:49
4443 ELORZA ENEKOITZ D 1419 11:07:05 4:58:05
4444 BRADLEY EDWIN F 638 11:07:10 4:58:10
4445 MENSEN RONALD D 1420 11:07:11 4:58:11
4446 XHAARD JACQUES F 639 11:07:20 4:58:20
4447 COTTER KENNY D 1421 11:07:22 4:58:22
4448 TUIJP SIMON D 1422 11:07:24 4:58:24
4449 BROUARD PIERRE-HENRI C 503 11:07:24 4:58:24
4450 HUTTEN RENE E 1643 11:07:24 4:58:24
4451 NORREDAHL LARS E 1644 11:07:27 4:58:27
4452 ROGIERS TONY D 1423 11:07:29 4:58:29
4453 KLUGE JAN D 1424 11:07:32 4:58:32
4454 VERDUIJN PIM G1 100 11:07:33 4:58:33
4455 CAEL DJANGO D 1425 11:07:34 4:58:34
4456 KYED KRISTIAN E 1645 11:07:36 4:58:36
4457 DAMGAARD HENRIK E 1646 11:07:36 4:58:36
4458 VYDT VINCENT E 1647 11:07:51 4:58:51
4459 STEPHENS JOHN D 1426 11:07:53 4:58:53
4460 MOORE DAVID F 640 11:08:01 4:59:01
4461 CLAYTON JONATHAN D 1427 11:08:03 4:59:03
4462 MUNOZ ANGEL E 1648 11:08:16 4:59:16
4463 ORTS JOSE F 641 11:08:21 4:59:21
4464 FRANCO MIGUEL EDUARDO E 1649 11:08:23 4:59:23
4465 BOUCARD DAVID D 1428 11:08:24 4:59:24
4466 COOREMAN EDDY D 1429 11:08:28 4:59:28
4467 BITTEL PIERRE F 642 11:08:32 4:59:32
4468 LOKERS WIM E 1650 11:08:35 4:59:35
4469 LOVATT DAVID F 643 11:08:38 4:59:38
4470 JOURDAN JEAN JACQUES F 644 11:08:43 4:59:43
4471 HEATHCOTE CARLO D 1430 11:08:44 4:59:44
4472 HOLLER KLAUS F 645 11:08:48 4:59:48
4473 VALGALIER STEPHANE D 1431 11:08:48 4:59:48
4474 CHARRIN JÉRÔME D 1432 11:08:48 4:59:48
4475 HAWES CHRISTOPHER C 504 11:08:52 4:59:52
4476 MURGUI MIGUEL E 1651 11:08:59 4:59:59
4477 SYCH GERD F 646 11:09:06 5:00:06
4478 SANTOS LOPEZ DOMINGO E 1652 11:09:08 5:00:08
4479 BLACKBURN JOANNA A 34 11:09:13 5:00:13
4480 BURROWS STUART E 1653 11:09:17 5:00:17
4481 VANDENBILCKE JAN D 1433 11:09:21 5:00:21
4482 RAMOS ORTEGA JOSE MARIA E 1654 11:09:22 5:00:22
4483 AGUILAR ALMINANA JUAN F 647 11:09:23 5:00:23
4484 RASMUSSEN LAUGE C 505 11:09:23 5:00:23
4485 BLOT PATRICE F 648 11:09:29 5:00:29
4486 VOGTEN HARRIE E 1655 11:09:34 5:00:34
4487 MOREAU PATRICK G1 101 11:09:37 5:00:37
4488 LIVERSEDGE MARK E 1656 11:09:41 5:00:41
4489 SCOTT NIGEL F 649 11:09:41 5:00:41
4490 BALLERING PAUL D 1434 11:09:42 5:00:42
4491 NOOTER JAN-WILLEM F 650 11:09:50 5:00:50
4492 FRANCIS JOSEPH F 651 11:09:53 5:00:53
4493 CAVAZZOLI ALESSIA AB 59 11:10:02 5:01:02
4494 BLOKKER LEON F 652 11:10:09 5:01:09
4495 HUYSMANS NANCY AB 60 11:10:09 5:01:09
4496 RIPOLLES MESTRE CARLOS C 506 11:10:25 5:01:25
4497 HARDWICK RICHARD E 1657 11:10:31 5:01:31
4498 MORRIS DAVID J 9 11:10:32 5:01:32
4499 TYLE ROGER E 1658 11:10:37 5:01:37
4500 MARCHER LARS E 1659 11:10:43 5:01:43
4501 HENDRIKX ERIK E 1660 11:10:48 5:01:48
4502 CONTE LAETITIA A 35 11:10:50 5:01:50
4503 SEGERS FILIP C 507 11:10:59 5:01:59
4504 PAGE REGIS G1 102 11:11:06 5:02:06
4505 BOLE RUPERT F 653 11:11:13 5:02:13
4506 ANDERSEN SOREN F 654 11:11:16 5:02:16
4507 FESTUOT CHRISTIAN F 655 11:11:21 5:02:21
4508 NAVARRO MUÑOZ MARTIN E 1661 11:11:21 5:02:21
4509 LELOUP ERIC E 1662 11:11:22 5:02:22
4510 CONTE FEDERICO E 1663 11:11:23 5:02:23
4511 FOUQUET FREDERIC E 1664 11:11:24 5:02:24
4512 VAN STRIEN MAARTEN JOHAN C 508 11:11:24 5:02:24
4513 NIJSTAD NIELS C 509 11:11:24 5:02:24
4514 AGUADO ALBERT FRANCISCO E 1665 11:11:26 5:02:26
4515 VANDEKERCKHOVE BALD E 1666 11:11:26 5:02:26
4516 GARCIA RAMIRO MOISES F 656 11:11:28 5:02:28
4517 KOOL TIJN E 1667 11:11:32 5:02:32
4518 VANDERBORGHT TANGUY D 1435 11:11:33 5:02:33
4519 MCLAUGHIN PETER F 657 11:11:34 5:02:34
4520 VAN ASSCHE MARLEEN B 10 11:11:37 5:02:37
4521 VAN ERP MARTIJN C 510 11:11:39 5:02:39
4522 GARNIER DOMINIQUE F 658 11:11:41 5:02:41
4523 LOCKETT GRAHAM E 1668 11:11:47 5:02:47
4524 JEPPESEN MADS F 659 11:11:50 5:02:50
4525 NEDERLOF ERWIN E 1669 11:11:52 5:02:52
4526 BURTON MATTHEW C 511 11:11:53 5:02:53
4527 JAMES DANIEL C 512 11:11:55 5:02:55
4528 GABRIELS CHRISTIAN G1 103 11:12:09 5:03:09
4529 HAMPSHIRE THOMAS D 1436 11:12:12 5:03:12
4530 LEWIS IAN G1 104 11:12:17 5:03:17
4531 POSSENTI RAPHAEL E 1670 11:12:20 5:03:20
4532 BEURMS FRANKY D 1437 11:12:22 5:03:22
4533 VAN BOXSTAEL EDDY F 660 11:12:22 5:03:22
4534 HALDERMAN RICHARD E 1671 11:12:22 5:03:22
4535 SCHUT TIMEN F 661 11:12:28 5:03:28
4536 STEINER ROLAND F 662 11:12:30 5:03:30
4537 DE GARDEIJN MARCO E 1672 11:12:37 5:03:37
4538 MADINA INIGO E 1673 11:12:43 5:03:43
4539 LANGEVOORD MARTIN D 1438 11:12:44 5:03:44
4540 AABERG PER F 663 11:12:45 5:03:45
4541 JUUL PETER F 664 11:12:45 5:03:45
4542 DE HOND RAYMOND D 1439 11:12:50 5:03:50
4543 BOURREL RENE G1 105 11:12:53 5:03:53
4544 FRANCART DAVID D 1440 11:12:56 5:03:56
4545 ANDREASSON TORBJORN E 1674 11:13:05 5:04:05
4546 HELDER JISKA E 1675 11:13:06 5:04:06
4547 ALEXANDER HUGH E 1676 11:13:10 5:04:10
4548 ARAQUE GARCIA TOMAS F 665 11:13:13 5:04:13
4549 SANZ BLASCO JUAN F 666 11:13:13 5:04:13
4550 DE VAZELHES JUST E 1677 11:13:17 5:04:17
4551 TOMAS ALBERTO RAMON E 1678 11:13:18 5:04:18
4552 PARKIN JOHN D 1441 11:13:19 5:04:19
4553 VLEGHERT PAUL C 513 11:13:24 5:04:24
4554 ITARTE JOSE E 1679 11:13:26 5:04:26
4555 BEAU GERARD G1 106 11:13:28 5:04:28
4556 MOLLER CHRISTIAN D 1442 11:13:29 5:04:29
4557 SEGHIR DIDIER F 667 11:13:29 5:04:29
4558 CHEVALEYRIAS FREDERIC E 1680 11:13:32 5:04:32
4559 PETIT ANDRE E 1681 11:13:32 5:04:32
4560 BELL RACHEL AB 61 11:13:41 5:04:41
4561 EKELSCHOT JOHN F 668 11:13:53 5:04:53
4562 DUCLY GRAZIANO F 669 11:13:59 5:04:59
4563 SCHATTEMAN STEFAAN E 1682 11:14:02 5:05:02
4564 WEIJCK JAN G1 107 11:14:12 5:05:12
4565 MEINDER ROLAND D 1443 11:14:19 5:05:19
4566 HAGEMAN GILLES D 1444 11:14:21 5:05:21
4567 BEUDEKER HANS F 670 11:14:21 5:05:21
4568 MAYNARD ALAN E 1683 11:14:24 5:05:24
4569 VAN DOORN PIETER D 1445 11:14:24 5:05:24
4570 RAAIJMAKERS IMKE AB 62 11:14:26 5:05:26
4571 BALL KEVIN D 1446 11:14:27 5:05:27
4572 MARSHALL PAUL F 671 11:14:58 5:05:58
4573 HENNINK CHRISTIAAN C 514 11:15:03 5:06:03
4574 FLESCH SASKIA AB 63 11:15:10 5:06:10
4575 KAKES MARK E 1684 11:15:12 5:06:12
4576 VAN EIJK HANS D 1447 11:15:19 5:06:19
4577 THORSEN OLE G1 108 11:15:41 5:06:41
4578 JOHNSTONE ANTHONY F 672 11:15:42 5:06:42
4579 VAN DRIEL ERIK D 1448 11:15:50 5:06:50
4580 DIJKMAN PIM C 515 11:15:57 5:06:57
4581 PHILIPPA WIM F 673 11:15:58 5:06:58
4582 ZWAENEPOEL ROELAND D 1449 11:15:58 5:06:58
4583 KIRTON PAUL F 674 11:16:02 5:07:02
4584 DIJKSTRA RAYMOND D 1450 11:16:04 5:07:04
4585 LAUGIER ANDRE E 1685 11:16:13 5:07:13
4586 DE WEIJER ANTOIN D 1451 11:16:14 5:07:14
4587 VERBEKE SVEN D 1452 11:16:15 5:07:15
4588 DAVIES TOBY D 1453 11:16:26 5:07:26
4589 DE KEYSER ANNEMIEKE AB 64 11:16:27 5:07:27
4590 HARMSEN ROB D 1454 11:16:32 5:07:32
4591 RAADSCHELDERS JOHN F 675 11:16:41 5:07:41
4592 VAN WAMEL EDWIN D 1455 11:16:49 5:07:49
4593 TROOST ARIE D 1456 11:16:52 5:07:52
4594 MINNI CHRISTOPHE D 1457 11:16:53 5:07:53
4595 FERNANDEZ DEL CARMEN MIGUEL ANGEL E 1686 11:16:54 5:07:54
4596 SCHENK JEROEN D 1458 11:16:56 5:07:56
4597 AGERBO NIELSEN FINN F 676 11:16:57 5:07:57
4598 MARANGONI PIERGIOVANNI G1 109 11:16:59 5:07:59
4599 HARTSEMA PETER E 1687 11:17:00 5:08:00
4600 LIGTHART MAURICE E 1688 11:17:02 5:08:02
4601 STOLL DANIEL D 1459 11:17:06 5:08:06
4602 FEUCHTER CHRISTIAN E 1689 11:17:15 5:08:15
4603 BOMPAR JEAN PAUL E 1690 11:17:40 5:08:40
4604 DE NIJS LUDGER E 1691 11:17:42 5:08:42
4605 COOLS KRISTOF C 516 11:17:43 5:08:43
4606 STEENBERGHE JOHN E 1692 11:17:55 5:08:55
4607 ELPERS JAN F 677 11:17:55 5:08:55
4608 LABOUZ STEPHAN E 1693 11:17:57 5:08:57
4609 JANSSENS PETER E 1694 11:17:58 5:08:58
4610 STROBBE JOHAN F 678 11:18:00 5:09:00
4611 PEDRETTI STEPHANE E 1695 11:18:03 5:09:03
4612 GREEN JOANNE A 36 11:18:24 5:09:24
4613 STOLP RUUD E 1696 11:18:30 5:09:30
4614 BAIN ANDREW E 1697 11:18:42 5:09:42
4615 GOLDBERG BJARNE F 679 11:18:43 5:09:43
4616 PEACEY MIKE E 1698 11:18:47 5:09:47
4617 OFFERHAUS CHRISTIAAN D 1460 11:18:49 5:09:49
4618 AQUINA LEO D 1461 11:18:49 5:09:49
4619 BLOM GEERT F 680 11:18:52 5:09:52
4620 HERMANS WILLEM C 517 11:18:55 5:09:55
4621 STOLK RON E 1699 11:18:59 5:09:59
4622 REDEKER TIMO E 1700 11:19:06 5:10:06
4623 GEENSE DIMITRI D 1462 11:19:06 5:10:06
4624 VAN DER LINDE STEF E 1701 11:19:06 5:10:06
4625 TIJDENS ARNOLD D 1463 11:19:07 5:10:07
4626 GARDIEN PATRICK E 1702 11:19:07 5:10:07
4627 CARTRY MICKAEL D 1464 11:19:11 5:10:11
4628 DE WIT DEO E 1703 11:19:16 5:10:16
4629 KELLY STEPHEN E 1704 11:19:16 5:10:16
4630 VAN HULLE PIET E 1705 11:19:16 5:10:16
4631 BAKER ALAN G1 110 11:19:16 5:10:16
4632 DOCHERTY JAMES D 1465 11:19:18 5:10:18
4633 GRAS ERNST JAN D 1466 11:19:20 5:10:20
4634 DOCHERTY LIZ A 37 11:19:23 5:10:23
4635 BARCLAY ROBERT F 681 11:19:32 5:10:32
4636 SMANS MARION A 38 11:19:37 5:10:37
4637 WESTERHOF ROBERT E 1706 11:19:39 5:10:39
4638 OLIMULDER ALWIE F 682 11:19:39 5:10:39
4639 BANL SOERENSEN ANDERS E 1707 11:19:47 5:10:47
4640 PRUVOST CHRISTOPHE D 1467 11:19:59 5:10:59
4641 NOORLANDER COR E 1708 11:20:06 5:11:06
4642 MISSIPO DAVID E 1709 11:20:16 5:11:16
4643 MENTRIDA BLANCA AB 65 11:20:16 5:11:16
4644 BORRAS MERLI MIGUEL FRANCISCO E 1710 11:20:16 5:11:16
4645 VAN RIJN KEES F 683 11:20:18 5:11:18
4646 SMITH ALISTAIR D 1468 11:20:23 5:11:23
4647 VAN WELL MARTIJN D 1469 11:20:24 5:11:24
4648 MOENTJENS FILIP D 1470 11:20:27 5:11:27
4649 FROIDER FLEMMING E 1711 11:20:34 5:11:34
4650 WOUTERS RONNY E 1712 11:20:41 5:11:41
4651 RASMUSSEN KENNETH E 1713 11:20:49 5:11:49
4652 VANHEVEL SIEGFRIED D 1471 11:20:52 5:11:52
4653 DELOOF RUBEN C 518 11:20:59 5:11:59
4654 DE JOODE ERNEST E 1714 11:20:59 5:11:59
4655 RAMOS SANTAMARIA JULIAN E 1715 11:21:05 5:12:05
4656 DE CLERCK JAN C 519 11:21:09 5:12:09
4657 SOLOGUREN VARGAS VICTOR E 1716 11:21:14 5:12:14
4658 SALISBURY MARK E 1717 11:21:25 5:12:25
4659 WYETH ANDREW E 1718 11:21:26 5:12:26
4660 MUIS FRANK D 1472 11:21:26 5:12:26
4661 STAFFORD ALAN D 1473 11:21:28 5:12:28
4662 TEISSEDRE BERNARD F 684 11:21:31 5:12:31
4663 ANDJELIC MISCHA D 1474 11:21:40 5:12:40
4664 BEENS WOUTER D 1475 11:21:42 5:12:42
4665 VIAENE WILLY F 685 11:21:42 5:12:42
4666 SILLEKENS FRANCK E 1719 11:21:50 5:12:50
4667 OBRIE GUIDO E 1720 11:21:55 5:12:55
4668 CHUBB IAN E 1721 11:22:13 5:13:13
4669 MAGNUS HEKTOR E 1722 11:22:18 5:13:18
4670 GREGERSEN LARS D 1476 11:22:19 5:13:19
4671 VAN GEEMERT LISETTE A 39 11:22:37 5:13:37
4672 NETHERCOT ANDREW D 1477 11:22:40 5:13:40
4673 SANTAMBROGIO MARCO E 1723 11:22:43 5:13:43
4674 VREUGDENHIL GERRIT D 1478 11:22:47 5:13:47
4675 BOGOEVSKI SASHO E 1724 11:22:54 5:13:54
4676 DE WIND MARCO D 1479 11:22:57 5:13:57
4677 WEITLINGHJELM KLAUS E 1725 11:23:10 5:14:10
4678 CRONIE DANIEL C 520 11:23:17 5:14:17
4679 HABERMANN HELMUT E 1726 11:23:18 5:14:18
4680 ROBIN DANIEL F 686 11:23:21 5:14:21
4681 COLLIGNON GERARD F 687 11:23:27 5:14:27
4682 SHARPE JAMES F 688 11:23:37 5:14:37
4683 PIJNACKER REIN G1 111 11:23:43 5:14:43
4684 LEXIS PATRICK E 1727 11:23:43 5:14:43
4685 PLAHM BJARNE F 689 11:23:46 5:14:46
4686 DEVROE DIRK E 1728 11:23:46 5:14:46
4687 GERRITS ONNO E 1729 11:23:52 5:14:52
4688 BASTIDE GILLES E 1730 11:23:55 5:14:55
4689 JUUL HENRIK E 1731 11:24:01 5:15:01
4690 MARTIN FREDERIC F 690 11:24:04 5:15:04
4691 BANSEMA MAARTEN C 521 11:24:08 5:15:08
4692 JOCHEMS DIRK E 1732 11:24:21 5:15:21
4693 GORDON JOHNNY E 1733 11:24:22 5:15:22
4694 RONNER JELTE C 522 11:24:28 5:15:28
4695 KEIJSER CHARLES F 691 11:24:29 5:15:29
4696 VANGOETHEMD PHILIPPE E 1734 11:24:31 5:15:31
4697 OTTEN ROGER F 692 11:24:43 5:15:43
4698 READ CHRIS D 1480 11:24:48 5:15:48
4699 ALBERDI INAKI D 1481 11:24:48 5:15:48
4700 HEEFELT ULRIK D 1482 11:24:49 5:15:49
4701 DE BLOK NIELS D 1483 11:24:52 5:15:52
4702 HARDY PHILIPPE E 1735 11:24:54 5:15:54
4703 RICHARDSON MICHAEL D 1484 11:24:55 5:15:55
4704 DALLASTA CLAUDIO F 693 11:25:04 5:16:04
4705 DE WEERDT JASPER C 523 11:25:09 5:16:09
4706 VEDEL HENRI G1 112 11:25:10 5:16:10
4707 VONK MARCO E 1736 11:25:15 5:16:15
4708 HAYLES PAUL E 1737 11:25:16 5:16:16
4709 SCHOLTEN WOUTER F 694 11:25:26 5:16:26
4710 HOLST MICHAEL F 695 11:25:30 5:16:30
4711 AALDERS JEANETTE B 11 11:25:35 5:16:35
4712 KRISTEL GEORGE F 696 11:25:43 5:16:43
4713 TAMARIT MUÑOZ JESUS E 1738 11:25:47 5:16:47
4714 CARRETERO VILLENA JOSE E 1739 11:25:48 5:16:48
4715 TAMARIT MUNOZ JOAN ENRIC E 1740 11:25:49 5:16:49
4716 AUSIN REVILLA SANTIAGO E 1741 11:25:59 5:16:59
4717 PELTIER FRANCIS G1 113 11:26:09 5:17:09
4718 BELHAOUANE CATHY AB 66 11:26:15 5:17:15
4719 MICHALON BRUNO E 1742 11:26:25 5:17:25
4720 ROCHON JEAN PHILIPPE E 1743 11:26:44 5:17:44
4721 ROBERTSON NEIL E 1744 11:26:48 5:17:48
4722 KOEHOORN LAURENS G1 114 11:26:58 5:17:58
4723 RODRIGUEZ JOSE ANTONIO F 697 11:26:59 5:17:59
4724 DE VRIES TIM C 524 11:27:08 5:18:08
4725 RASMUSSEN RENE E 1745 11:27:11 5:18:11
4726 FUCHS PETER E 1746 11:27:19 5:18:19
4727 GAMBI JO AB 67 11:27:21 5:18:21
4728 VIALLE MIKAEL C 525 11:27:22 5:18:22
4729 BERSET ERIC E 1747 11:27:25 5:18:25
4730 BRUN JEAN PHILIPPE C 526 11:27:25 5:18:25
4731 MEYER JOELLE A 40 11:27:26 5:18:26
4732 SIEGENTHALER CARINE A 41 11:27:27 5:18:27
4733 WHEAT MARTIN F 698 11:27:27 5:18:27
4734 EVERS JEROEN D 1485 11:27:28 5:18:28
4735 DENGEL HANS G1 115 11:27:29 5:18:29
4736 DEVILLE JOZEF F 699 11:27:30 5:18:30
4737 DE VRIES MARTIN F 700 11:27:38 5:18:38
4738 DE LUCA MARCELLO F 701 11:27:42 5:18:42
4739 REGELINK HENK F 702 11:27:43 5:18:43
4740 FALKESGAARD SVEND AAGE G1 116 11:27:52 5:18:52
4741 AUSTRUY OLIVIER D 1486 11:27:52 5:18:52
4742 DUSSILLOLS LAURENT D 1487 11:27:55 5:18:55
4743 TANNE ALAIN F 703 11:27:57 5:18:57
4744 HANSEN KIRSTEN ROVS AB 68 11:28:04 5:19:04
4745 VAN ’T SANT FRANK E 1748 11:28:05 5:19:05
4746 MORGAN STEVE G1 117 11:28:05 5:19:05
4747 PEFFER NATASCHA AB 69 11:28:07 5:19:07
4748 NAVARRO JEAN LOUIS F 704 11:28:07 5:19:07
4749 SKJOLDBORRG PETER E 1749 11:28:09 5:19:09
4750 JOHNSSON ANDERS E 1750 11:28:19 5:19:19
4751 LORENZELLI HELENE AB 70 11:28:19 5:19:19
4752 SABATES BROY RAMON G1 118 11:28:19 5:19:19
4753 VAN DE KOEVERING GERARD E 1751 11:28:27 5:19:27
4754 MARIMAN REZY AB 71 11:28:29 5:19:29
4755 GOMEZ IÑARRA AGUSTIN E 1752 11:28:31 5:19:31
4756 ALAERTS FRANK D 1488 11:28:33 5:19:33
4757 HAENTJENS KAREL F 705 11:28:37 5:19:37
4758 EUSER JACCO C 527 11:28:41 5:19:41
4759 NIELSEN PREBEN D 1489 11:29:04 5:20:04
4760 DERKS KEVIN D 1490 11:29:05 5:20:05
4761 DERKS JO G1 119 11:29:06 5:20:06
4762 DE GIER PAUL F 706 11:29:11 5:20:11
4763 WEHNER PER F 707 11:29:12 5:20:12
4764 VAN SPANJEN BAS E 1753 11:29:33 5:20:33
4765 REIJNDERS PETER E 1754 11:29:35 5:20:35
4766 QUESTROY MORGAN D 1491 11:29:38 5:20:38
4767 VAN VEELEN JONATHAN D 1492 11:29:41 5:20:41
4768 SMITH LOUISE A 42 11:29:53 5:20:53
4769 BRIL DIK G1 120 11:29:54 5:20:54
4770 DIXON KAREN E 1755 11:30:09 5:21:09
4771 DIXON RICHARD E 1756 11:30:09 5:21:09
4772 DE BRUIJN ROBBERT C 528 11:30:10 5:21:10
4773 WRAGG SAM D 1493 11:30:10 5:21:10
4774 HOUBEN WIL F 708 11:30:17 5:21:17
4775 KEUKEN MARCEL D 1494 11:30:20 5:21:20
4776 TOLON FREDERIC D 1495 11:30:22 5:21:22
4777 EMONET PATRICK E 1757 11:30:24 5:21:24
4778 HUPPERTZ SERGE E 1758 11:30:26 5:21:26
4779 PELLISSIER PIERRE D 1496 11:30:29 5:21:29
4780 GEERS JEROEN E 1759 11:30:41 5:21:41
4781 DE RUIJTER TIM C 529 11:30:48 5:21:48
4782 MEINDER DENIS D 1497 11:30:49 5:21:49
4783 TERSTEEG THEO F 709 11:30:51 5:21:51
4784 PAUWELS LUC E 1760 11:30:55 5:21:55
4785 CAMATTA YVON G1 121 11:30:59 5:21:59
4786 BAAN KEES F 710 11:31:11 5:22:11
4787 PEGRAM BILL E 1761 11:31:15 5:22:15
4788 TEUWEN JAN C 530 11:31:22 5:22:22
4789 KRISTENSEN KARSTEN E 1762 11:31:24 5:22:24
4790 MAHN JAN E 1763 11:31:30 5:22:30
4791 MANSELL KATHARINE AB 72 11:31:34 5:22:34
4792 HEALE BILL F 711 11:31:37 5:22:37
4793 DE BEL GINO E 1764 11:31:38 5:22:38
4794 FOLLET FABRICE E 1765 11:31:41 5:22:41
4795 CHRISTIE COLIN F 712 11:31:42 5:22:42
4796 DIEDERIX LEON C 531 11:31:47 5:22:47
4797 ECKHARDT RIEN G1 122 11:32:08 5:23:08
4798 MANDERS HARRY F 713 11:32:19 5:23:19
4799 HIELKEMA HUIB E 1766 11:32:25 5:23:25
4800 LANZI FABRIZIO F 714 11:32:25 5:23:25
4801 VIALE PIERLUIGI F 715 11:32:26 5:23:26
4802 ZAGEMA JACOB E 1767 11:32:26 5:23:26
4803 LARSEN JESPER E 1768 11:32:27 5:23:27
4804 WEIDMANN STEFAN E 1769 11:32:30 5:23:30
4805 HUMPHREY AARON E 1770 11:32:35 5:23:35
4806 BOKMA ADRIAAN G1 123 11:32:43 5:23:43
4807 PORCHER YVES G1 124 11:32:44 5:23:44
4808 VAN OIJEN TON E 1771 11:32:48 5:23:48
4809 SCULLY SHANE D 1498 11:32:49 5:23:49
4810 HURLET XAVIER C 532 11:32:53 5:23:53
4811 GODEAU NICOLAS E 1772 11:32:54 5:23:54
4812 VOSS ORLA G1 125 11:33:06 5:24:06
4813 DE WIT MARC E 1773 11:33:06 5:24:06
4814 PIOTROWSKI MARIUSZ E 1774 11:33:09 5:24:09
4815 HODGES COLIN J 10 11:33:12 5:24:12
4816 THOMAS JEAN LOUS E 1775 11:33:15 5:24:15
4817 SCHMITT LAURENT E 1776 11:33:19 5:24:19
4818 RICHTER UITDENBOGAARDT JEROEN C 533 11:33:23 5:24:23
4819 CHORLEY ALAN D 1499 11:33:37 5:24:37
4820 KEIJERS RENE C 534 11:33:46 5:24:46
4821 OSTERGAARD BJARNE E 1777 11:33:47 5:24:47
4822 EPINAT STEPHANE D 1500 11:33:54 5:24:54
4823 REILEV FLEMMING G1 126 11:33:57 5:24:57
4824 POMPER ALBERT JAN D 1501 11:33:59 5:24:59
4825 WEIL DOM C 535 11:34:08 5:25:08
4826 AUFRERE ALAIN G1 127 11:34:09 5:25:09
4827 VISSER HENK E 1778 11:34:12 5:25:12
4828 VAN LEEUWEN NICOLAAS D 1502 11:34:23 5:25:23
4829 KUMAR ROHAN C 536 11:34:27 5:25:27
4830 VAN DOORN MICHIEL D 1503 11:34:37 5:25:37
4831 MORRIS WILLIAM C 537 11:34:44 5:25:44
4832 ARENDS PAUL D 1504 11:34:44 5:25:44
4833 VAN GIJLSWIJK HERMAN F 716 11:34:44 5:25:44
4834 MUEHLEMANN PETER G1 128 11:35:08 5:26:08
4835 BRUGMANS TOM D 1505 11:35:12 5:26:12
4836 VAN HASSELT MONIQUE B 12 11:35:28 5:26:28
4837 KIDD ANGELA AB 73 11:35:29 5:26:29
4838 MARSMAN MARCO D 1506 11:35:35 5:26:35
4839 SCHUDDINCK LUC E 1779 11:35:42 5:26:42
4840 BENOIT GONIN FRANK D 1507 11:35:52 5:26:52
4841 PERKINS KEVIN E 1780 11:35:56 5:26:56
4842 HARTNETT EAMON D 1508 11:35:57 5:26:57
4843 BRAHAM DIDIER E 1781 11:35:59 5:26:59
4844 RZOSKA BJÖRN D 1509 11:36:20 5:27:20
4845 VAN DEN BERGHE GUY D 1510 11:36:26 5:27:26
4846 MOSTERT JOSEPH G1 129 11:36:28 5:27:28
4847 GYÖRGYI GÁBOR D 1511 11:36:28 5:27:28
4848 LONGUET FREDERIC E 1782 11:36:38 5:27:38
4849 SAYLES BEN D 1512 11:36:58 5:27:58
4850 MELLING EWEN E 1783 11:36:59 5:27:59
4851 LINAZASORO ASIER D 1513 11:37:03 5:28:03
4852 VAN DER POEL BAS E 1784 11:37:12 5:28:12
4853 COET-TOMATIS NATHALIE AB 74 11:37:13 5:28:13
4854 NUIJEN JASPER D 1514 11:37:16 5:28:16
4855 SCHRODER FRANK E 1785 11:37:17 5:28:17
4856 VESTENBAEK ULRIK D 1515 11:37:18 5:28:18
4857 VOSSE PHILIPPE E 1786 11:37:22 5:28:22
4858 KOOT MAARTEN C 538 11:37:24 5:28:24
4859 KESSELS FRANK F 717 11:37:26 5:28:26
4860 DEIRKAUF DICK G1 130 11:37:26 5:28:26
4861 CANET RODOLFO E 1787 11:37:28 5:28:28
4862 VAN EIJCK JORIS D 1516 11:37:33 5:28:33
4863 HILL ANDREW D 1517 11:37:40 5:28:40
4864 GUNN COLIN E 1788 11:37:48 5:28:48
4865 MASSEY LAURA A 43 11:38:00 5:29:00
4866 ANNEN JEAN-CLAUDE G1 131 11:38:03 5:29:03
4867 PICARD JEAN PAUL F 718 11:38:07 5:29:07
4868 DE JONG J F 719 11:38:08 5:29:08
4869 BLUNSUM TONY E 1789 11:38:13 5:29:13
4870 MURRAY KEVIN E 1790 11:38:16 5:29:16
4871 DREES SPEELMAN ROB D 1518 11:38:32 5:29:32
4872 MARINO SALVATORE C 539 11:38:36 5:29:36
4873 VAN DER TOORN MAARTEN E 1791 11:38:38 5:29:38
4874 GRAAFLAND WILLEM C 540 11:38:51 5:29:51
4875 UTTING JEL E 1792 11:38:52 5:29:52
4876 PETEERS MARCEL E 1793 11:38:53 5:29:53
4877 BEDENGHI WILIAM G1 132 11:39:01 5:30:01
4878 YDE BRIGITTE B 13 11:39:01 5:30:01
4879 NIEUWENHUIS EDWIN E 1794 11:39:02 5:30:02
4880 ROTHER PENNY B 14 11:39:05 5:30:05
4881 NIEUWENHUIJS TON F 720 11:39:07 5:30:07
4882 OSTLER JASON D 1519 11:39:13 5:30:13
4883 ADAMSON MARKSTEEN E 1795 11:39:18 5:30:18
4884 COOKE TERRY G1 133 11:39:34 5:30:34
4885 CONYERS RAMSEY C 541 11:39:38 5:30:38
4886 LLORENS DESCO AMADEU E 1796 11:39:59 5:30:59
4887 GEMIGNANI ROSSANO F 721 11:40:07 5:31:07
4888 BOUTEN THEO G2 13 11:40:09 5:31:09
4889 CORNELL JASON D 1520 11:40:17 5:31:17
4890 NEWMAN SCOTT E 1797 11:40:19 5:31:19
4891 STOL THEO F 722 11:40:29 5:31:29
4892 D’HONDT GUNTER D 1521 11:40:31 5:31:31
4893 BARTOLOMÉ ULACIA PEDRO M. F 723 11:40:32 5:31:32
4894 VANHAVERBEKE MAARTEN D 1522 11:40:45 5:31:45
4895 HORNER HAZEL RICHARD G1 134 11:40:53 5:31:53
4896 MENDEZ CARLES F 724 11:41:01 5:32:01
4897 LOSI EMILIANO D 1523 11:41:09 5:32:09
4898 VAN DER PLAS MATTHIJS E 1798 11:41:12 5:32:12
4899 MOL BERT G1 135 11:41:14 5:32:14
4900 TOTE THIERRY D 1524 11:41:23 5:32:23
4901 RODUNER FLOOR C 542 11:41:34 5:32:34
4902 DORADO DIAZ JAVIER E 1799 11:41:45 5:32:45
4903 RUTTEMAN PHILIP C 543 11:41:45 5:32:45
4904 BLASTLAND JAMES C 544 11:41:47 5:32:47
4905 NIELSON BO E 1800 11:41:57 5:32:57
4906 MEERSSEMAN FRANCIS C 545 11:42:08 5:33:08
4907 PERROTT DARREN D 1525 11:42:13 5:33:13
4908 HOAD IAN D 1526 11:42:25 5:33:25
4909 VISSER JIELIS E 1801 11:42:29 5:33:29
4910 SPORCK MISHA C 546 11:42:41 5:33:41
4911 GOMM PHILIP E 1802 11:42:53 5:33:53
4912 KOORNNEEF MARCEL D 1527 11:42:55 5:33:55
4913 SNELLEN LOVINA AB 75 11:42:59 5:33:59
4914 HALL MARTIN E 1803 11:43:10 5:34:10
4915 ALLEN STEPHEN D 1528 11:43:10 5:34:10
4916 LIEBENS MARC E 1804 11:43:20 5:34:20
4917 DECOUTERE MARTINE B 15 11:43:23 5:34:23
4918 PRIEMEN BENNY G1 136 11:43:26 5:34:26
4919 NORGAARD ANDERSEN MICHAEL E 1805 11:43:26 5:34:26
4920 VENIER LEE E 1806 11:43:30 5:34:30
4921 AARTS ERIK D 1529 11:43:31 5:34:31
4922 THIERY DOMINIQUE F 725 11:43:36 5:34:36
4923 CLEMENT MARC D 1530 11:43:37 5:34:37
4924 KNUD IVERSEN F 726 11:43:58 5:34:58
4925 CALABUIG MUNIZ JOSE MIGUEL F 727 11:44:10 5:35:10
4926 URIARTE JOSE CASLA E 1807 11:44:19 5:35:19
4927 SMEKENS DIRK E 1808 11:44:30 5:35:30
4928 TE BUCK ANNE MARIE AB 76 11:44:36 5:35:36
4929 LEBOULANGER ERIC E 1809 11:44:37 5:35:37
4930 CAMPBELL GAVIN F 728 11:44:56 5:35:56
4931 BODI RICO JOSE F 729 11:44:58 5:35:58
4932 COSTA LAFARGA FRANCSICO JAVIER E 1810 11:44:59 5:35:59
4933 VALLET COSTA ENRIQUE F 730 11:44:59 5:35:59
4934 COLLADO CALERO JUAN E 1811 11:44:59 5:35:59
4935 DEAN NICHOLAS E 1812 11:45:01 5:36:01
4936 GOMEZ DE BARREDA DIEGO E 1813 11:45:01 5:36:01
4937 GODFREY DAVID D 1531 11:45:05 5:36:05
4938 WELLS SCOTT D 1532 11:45:09 5:36:09
4939 VAN SCHILT HARRIE E 1814 11:45:12 5:36:12
4940 JANSSEN FRANK E 1815 11:45:12 5:36:12
4941 MORET DE KOE JAAP F 731 11:45:26 5:36:26
4942 VAN DEN BOSSCHE GUY E 1816 11:45:27 5:36:27
4943 ADRIAENSENS LARS E 1817 11:45:27 5:36:27
4944 VAN DORSSELAER FONS F 732 11:45:32 5:36:32
4945 LUPTON GEORGE E 1818 11:45:36 5:36:36
4946 KING GARETH F 733 11:45:41 5:36:41
4947 SAUNDERS ANDREW E 1819 11:45:41 5:36:41
4948 VAN MEGEN HANS G1 137 11:45:42 5:36:42
4949 DESSERS DANNY E 1820 11:45:50 5:36:50
4950 HUYGHE PIETER D 1533 11:46:05 5:37:05
4951 FOWLIS JULIAN D 1534 11:46:09 5:37:09
4952 DE BIE ANDRE E 1821 11:46:09 5:37:09
4953 KOOPMAN MICHIEL D 1535 11:46:12 5:37:12
4954 VERHEYDEN TOM D 1536 11:46:13 5:37:13
4955 PITTMAN ANDREW D 1537 11:46:19 5:37:19
4956 KERR JIM E 1822 11:46:20 5:37:20
4957 GALE BRIAN F 734 11:46:33 5:37:33
4958 THOMAS GARETH D 1538 11:46:42 5:37:42
4959 SFRINTZERIS TINO D 1539 11:46:46 5:37:46
4960 TATOLI VINCENT F 735 11:46:48 5:37:48
4961 JORGENSEN RENE F 736 11:46:49 5:37:49
4962 VERBURGT JASPER D 1540 11:46:59 5:37:59
4963 BATTERMANN DIRK E 1823 11:47:03 5:38:03
4964 RIETVELD ELMER D 1541 11:47:26 5:38:26
4965 MATHIEU VINCENT D 1542 11:47:41 5:38:41
4966 BECKERT ANDRÉ C 547 11:47:58 5:38:58
4967 GURNEY MALCOLM E 1824 11:48:32 5:39:32
4968 BOSCH FRANS F 737 11:48:41 5:39:41
4969 GEUDENS SONJA B 16 11:48:45 5:39:45
4970 VAN DER MOLEN JAN F 738 11:48:47 5:39:47
4971 EVANS PHILIP D 1543 11:48:47 5:39:47
4972 TOMASSINI DAMIEN D 1544 11:49:04 5:40:04
4973 GUSTAFSSON LASSE F 739 11:49:05 5:40:05
4974 JACOBS STEPHEN C 548 11:49:07 5:40:07
4975 HENDRIKSEN HEIN E 1825 11:49:16 5:40:16
4976 DRAYNE KEVIN F 740 11:49:19 5:40:19
4977 BATES ALAN F 741 11:49:20 5:40:20
4978 POSTUMA HOITE F 742 11:49:25 5:40:25
4979 GRIFFITHS PHIL F 743 11:49:42 5:40:42
4980 METZ CHRISTIAN D 1545 11:49:43 5:40:43
4981 ONVLEE GIJS D 1546 11:49:43 5:40:43
4982 ROMI PHILIPPE E 1826 11:49:58 5:40:58
4983 RASMUSSEN ALLAN F 744 11:50:15 5:41:15
4984 GODFREY JOHN G1 138 11:50:17 5:41:17
4985 JULIEN FRANK E 1827 11:50:18 5:41:18
4986 CROXFORD MARTIN E 1828 11:50:24 5:41:24
4987 PETERSEN SONNY E 1829 11:50:35 5:41:35
4988 KOTHKE DIETER F 745 11:50:48 5:41:48
4989 ROMBAUT EDGARD F 746 11:51:05 5:42:05
4990 BRENDONCK MARC E 1830 11:51:17 5:42:17
4991 KAARE SCHMIDT E 1831 11:51:18 5:42:18
4992 VAN DOREMALEN JAN F 747 11:51:19 5:42:19
4993 CHAMBOST DIDIER E 1832 11:51:23 5:42:23
4994 VAN DOREMALEN LEO F 748 11:51:30 5:42:30
4995 BLOOMFIELD STUART D 1547 11:51:32 5:42:32
4996 AUGRIT REMI C 549 11:51:49 5:42:49
4997 JOPPE JOHN D 1548 11:51:55 5:42:55
4998 DEYRES ERIC F 749 11:52:01 5:43:01
4999 PEDERSEN KENNETH E 1833 11:52:10 5:43:10
5000 VAN LAGEN MARTIN E 1834 11:52:13 5:43:13
5001 MCCABE CHRISTOPHER E 1835 11:52:26 5:43:26
5002 GALLARD LUDOVIC D 1549 11:52:28 5:43:28
5003 VALANCE ALEXANDRE E 1836 11:52:32 5:43:32
5004 MORONEY MARK F 750 11:52:32 5:43:32
5005 BELTRAMINI ALESSANDRO D 1550 11:52:59 5:43:59
5006 VALCKE DAVID D 1551 11:53:01 5:44:01
5007 VAN DER LOO BERRY D 1552 11:53:04 5:44:04
5008 SCHMIDT WERNER F 751 11:53:05 5:44:05
5009 MAES HANS D 1553 11:53:05 5:44:05
5010 WAMISTER ROLAND D 1554 11:53:19 5:44:19
5011 LINK SANDRA A 44 11:53:21 5:44:21
5012 VAN WEERT HENK G1 139 11:53:31 5:44:31
5013 BIANCHO ORIO F 752 11:53:34 5:44:34
5014 BOCEDI IVANO G1 140 11:53:35 5:44:35
5015 DEKKER JAAP F 753 11:53:40 5:44:40
5016 WRIGHT KELVIN E 1837 11:53:42 5:44:42
5017 DEVINE PARAIC F 754 11:53:43 5:44:43
5018 BURLAND JAMES F 755 11:54:01 5:45:01
5019 ROSE DAVID D 1555 11:54:04 5:45:04
5020 COLLINS STEVE D 1556 11:54:21 5:45:21
5021 CAESEMAEKER CHRISTOPHE E 1838 11:54:48 5:45:48
5022 WAGENVOORT JAAP C 550 11:54:48 5:45:48
5023 BALD STEPHEN D 1557 11:54:57 5:45:57
5024 CROWLEY NIALL D 1558 11:55:05 5:46:05
5025 SCHOLTE WUBBO F 756 11:55:13 5:46:13
5026 VAN DEN BOSCH DIRK E 1839 11:55:15 5:46:15
5027 BALDE GEORGES D 1559 11:55:16 5:46:16
5028 HOETINK JEROEN E 1840 11:55:26 5:46:26
5029 GIBBONS PAUL E 1841 11:55:29 5:46:29
5030 MICHAELSEN LAUST E 1842 11:55:42 5:46:42
5031 OLSEN SOREN E 1843 11:55:44 5:46:44
5032 VAN DAM DICK E 1844 11:55:45 5:46:45
5033 CHOUDY LIONEL G1 141 11:55:55 5:46:55
5034 ZEVENBERGEN GERRIT E 1845 11:55:56 5:46:56
5035 HIRST SIMON D 1560 11:55:56 5:46:56
5036 BYERS TONY E 1846 11:56:03 5:47:03
5037 RALLO ELIAS E 1847 11:56:07 5:47:07
5038 OSSENKOPPELE LARS E 1848 11:56:08 5:47:08
5039 ROSIER PASCAL E 1849 11:56:11 5:47:11
5040 DEMEULEMEESTER GUIDO E 1850 11:56:22 5:47:22
5041 RENKEN REINT JAN D 1561 11:56:28 5:47:28
5042 CHABIN PASCAL E 1851 11:56:30 5:47:30
5043 ADAMS GERARD E 1852 11:56:36 5:47:36
5044 BOLANGIER ELKE A 45 11:56:51 5:47:51
5045 KOORNNEEF RICHARD D 1562 11:56:51 5:47:51
5046 POULSEN JAN SKOV F 757 11:57:13 5:48:13
5047 SABATIER OLIVIER E 1853 11:57:19 5:48:19
5048 VAES BART E 1854 11:57:45 5:48:45
5049 VANACKERE JO E 1855 11:57:50 5:48:50
5050 DEZAIRE SJEF E 1856 11:58:07 5:49:07
5051 NIXON STEPHEN F 758 11:58:12 5:49:12
5052 KELLY ALAN E 1857 11:58:34 5:49:34
5053 PELLEGRY SERGE E 1858 11:58:40 5:49:40
5054 SCHOLTEN RONALD D 1563 11:58:41 5:49:41
5055 GIBOT PHILIPPE E 1859 11:58:44 5:49:44
5056 POULSEN THOMAS E 1860 11:58:48 5:49:48
5057 MARYNIAK MICHEL G1 142 11:58:49 5:49:49
5058 NIELSEN KLAUS E 1861 11:58:49 5:49:49
5059 VAN TOOR ARJAN E 1862 11:59:08 5:50:08
5060 HENDRICKX LUC F 759 11:59:35 5:50:35
5061 SORENSEN KIM F 760 11:59:38 5:50:38
5062 MISMETTI PATRICK F 761 11:59:39 5:50:39
5063 GEPTS CARL E 1863 11:59:44 5:50:44
5064 PETERS ERIC E 1864 11:59:54 5:50:54
5065 JUNGBLUTH FREDY F 762 11:59:56 5:50:56
5066 PRAILE CHRISTIAN F 763 11:59:57 5:50:57
5067 LEEZENBERG PIETER BASTIAAN E 1865 12:00:00 5:51:00
5068 HARDIMAN COLM D 1564 12:00:02 5:51:02
5069 CASSART J.POL E 1866 12:00:12 5:51:12
5070 HOLLINGSWORTH RICHARD E 1867 12:00:23 5:51:23
5071 PIERREUX STEFAAN E 1868 12:00:25 5:51:25
5072 LHOTE SOLANGE AB 77 12:00:37 5:51:37
5073 BRADLEY JOHN F 764 12:00:40 5:51:40
5074 HARPER JOHN F 765 12:00:40 5:51:40
5075 L HOTE PHILIPPE E 1869 12:00:40 5:51:40
5076 NORMAN LEE D 1565 12:00:58 5:51:58
5077 NUYENS RAYMOND F 766 12:01:01 5:52:01
5078 ATKINSON PAUL E 1870 12:01:07 5:52:07
5079 GARDNER ALFIE E 1871 12:01:08 5:52:08
5080 DRUCE EDWARD D 1566 12:01:23 5:52:23
5081 WALSH ALEX D 1567 12:01:24 5:52:24
5082 MICKAEL JARLE F 767 12:01:29 5:52:29
5083 PEDERSEN JENS F 768 12:01:45 5:52:45
5084 MCCARRY PATRICK D 1568 12:01:46 5:52:46
5085 HALLIDAY LIZ AB 78 12:01:55 5:52:55
5086 MERCIER PHILIPPE F 769 12:01:57 5:52:57
5087 VAN DEN BROECK DIMITRI E 1872 12:02:13 5:53:13
5088 TE KULVE ERIC F 770 12:02:16 5:53:16
5089 SAPIN DIDIER E 1873 12:02:20 5:53:20
5090 FORTUNE STEPHEN E 1874 12:02:26 5:53:26
5091 BLOM ERIC E 1875 12:02:36 5:53:36
5092 BARNEL FABIENNE B 17 12:02:38 5:53:38
5093 O SULLIVAN LOCHLAN D 1569 12:02:38 5:53:38
5094 BARNEL BERNARD F 771 12:02:39 5:53:39
5095 TIMMERS CARINA A 46 12:02:41 5:53:41
5096 PALMER NICK E 1876 12:02:55 5:53:55
5097 MELLEMGARD NIELS FREDERIK D 1570 12:02:57 5:53:57
5098 MUNOZ ALCARAZ JAIME E 1877 12:03:18 5:54:18
5099 MOLINES GIMENEZ FRANCISCO F 772 12:03:19 5:54:19
5100 KRAAN MATHIJS D 1571 12:03:39 5:54:39
5101 ARAPAKIS LAKE E 1878 12:03:57 5:54:57
5102 HESSELS DIMITRI D 1572 12:04:03 5:55:03
5103 GEORGE BRUCE E 1879 12:04:08 5:55:08
5104 JUNGBLUTH CARLO F 773 12:04:10 5:55:10
5105 MAK ARNO D 1573 12:04:12 5:55:12
5106 ISING KLAUS F 774 12:04:13 5:55:13
5107 BELSACK BERNARD E 1880 12:04:22 5:55:22
5108 HOULIHAN AUSTIN D 1574 12:04:30 5:55:30
5109 DE GREEF TOM C 551 12:04:34 5:55:34
5110 CLAIN DENIS D 1575 12:05:00 5:56:00
5111 MONAGHAN NIGEL E 1881 12:05:04 5:56:04
5112 BUDNY ROBERT J 11 12:05:07 5:56:07
5113 DOHERTY RAYMOND F 775 12:05:09 5:56:09
5114 QUINCEY NEIL JOHN E 1882 12:05:18 5:56:18
5115 CLARK ALEX E 1883 12:05:19 5:56:19
5116 PENNINKX TERRY AB 79 12:05:45 5:56:45
5117 HARRIS STUART C 552 12:05:49 5:56:49
5118 VAN BERGEN EDDY G1 143 12:05:56 5:56:56
5119 FOURNIER CHRISTOPHE D 1576 12:06:08 5:57:08
5120 SWEENEY SEAN D 1577 12:06:26 5:57:26
5121 NIELSEN LARS F 776 12:06:35 5:57:35
5122 ZAMPELLI MARIO E 1884 12:06:58 5:57:58
5123 MARTINENGO LAURA AB 80 12:06:59 5:57:59
5124 PLASTOW ROBERT E 1885 12:07:00 5:58:00
5125 GROOTJANS THEO F 777 12:07:01 5:58:01
5126 WILSON SIMON E 1886 12:07:12 5:58:12
5127 GROEN IN ’T WOUD MARTY E 1887 12:07:12 5:58:12
5128 HAWKINS DAVID C 553 12:07:14 5:58:14
5129 VAN KAMPEN JAN WILLEM C 554 12:07:16 5:58:16
5130 CECCHETTO DINO F 778 12:07:20 5:58:20
5131 LISOWSKI LUKAS D 1578 12:08:02 5:59:02
5132 ROMANES FINN D 1579 12:08:06 5:59:06
5133 VAN DOOREN PIET F 779 12:08:07 5:59:07
5134 DIERICK KAREL AB 81 12:08:07 5:59:07
5135 HARVEY SIMON F 780 12:08:16 5:59:16
5136 SADOLIN JORGENSEN HENRIK D 1580 12:08:36 5:59:36
5137 SOUFFLET JEAN PIERRE G2 14 12:08:53 5:59:53
5138 HAZENBERG PETER E 1888 12:09:01 6:00:01
5139 SPOTO GIUSEPPE E 1889 12:09:06 6:00:06
5140 LOERTS WIENE G1 144 12:09:16 6:00:16
5141 LAURS RIK E 1890 12:09:17 6:00:17
5142 RYTTER MICHAEL E 1891 12:09:21 6:00:21
5143 PLASKOWSKI BRON E 1892 12:09:42 6:00:42
5144 THOMSEN BJORN E 1893 12:09:47 6:00:47
5145 VANDAMME KRIS D 1581 12:09:47 6:00:47
5146 BARVILLE MARC D 1582 12:09:49 6:00:49
5147 PERKINS HOWARD E 1894 12:10:00 6:01:00
5148 BLAKE IAN E 1895 12:10:14 6:01:14
5149 DE PAGTER HANS E 1896 12:10:24 6:01:24
5150 TOONHOUT TIM D 1583 12:10:42 6:01:42
5151 PEZZOLA STEFANO E 1897 12:10:54 6:01:54
5152 CECCONI ALBERTO E 1898 12:10:54 6:01:54
5153 RODTS STEFAAN D 1584 12:11:04 6:02:04
5154 NILLES PIERRE F 781 12:11:15 6:02:15
5155 VAN WONDEREN NIELS D 1585 12:11:20 6:02:20
5156 DE GOEIJ JAN-DIRK E 1899 12:11:52 6:02:52
5157 GUILLEROT PIERRE JEAN E 1900 12:12:03 6:03:03
5158 ALBIACH CARBONEL FRANCISCO JOSE D 1586 12:12:07 6:03:07
5159 STEVENS FREDDY E 1901 12:12:45 6:03:45
5160 VENNIX CEES G1 145 12:12:48 6:03:48
5161 WOLBES ANTOINE D 1587 12:12:54 6:03:54
5162 LATIMER CHRIS C 555 12:12:57 6:03:57
5163 VALANCE ANTOINE G2 15 12:13:00 6:04:00
5164 SLAUS MANU D 1588 12:13:41 6:04:41
5165 TER HARK ANNEMIEKE AB 82 12:13:43 6:04:43
5166 SMIT JARNO D 1589 12:13:48 6:04:48
5167 POLUS JOHAN E 1902 12:13:51 6:04:51
5168 LAURSEN STEEN E 1903 12:14:17 6:05:17
5169 VAN OOIJEN ADRI E 1904 12:14:56 6:05:56
5170 SWERTS FABIAN C 556 12:14:59 6:05:59
5171 BRAAKSMA ROB E 1905 12:15:00 6:06:00
5172 DE BOT ANDRE F 782 12:15:40 6:06:40
5173 HEYLEN FREDERIK G1 146 12:16:02 6:07:02
5174 BROUWER SYBOLT F 783 12:16:13 6:07:13
5175 DE VRIES MICHEL F 784 12:16:15 6:07:15
5176 VELDMAN TANJA A 47 12:16:20 6:07:20
5177 DE HERTOGH JAN D 1590 12:16:41 6:07:41
5178 COLSTON JULIA A 48 12:16:43 6:07:43
5179 SPANGNER MARC E 1906 12:17:08 6:08:08
5180 MELSENS KRISTOF D 1591 12:17:38 6:08:38
5181 VERMEULEN WILLY E 1907 12:17:45 6:08:45
5182 RICHARDS ANTHONY F 785 12:17:52 6:08:52
5183 HAETTICH CHRISTIAN I 4 12:17:55 6:08:55
5184 DAHL ANDERSEN KENNETH D 1592 12:18:05 6:09:05
5185 KROMANN STEFFEN E 1908 12:18:11 6:09:11
5186 SEKKELUND KARLO G1 147 12:18:32 6:09:32
5187 DEN ENGELSE JAN F 786 12:18:34 6:09:34
5188 VESPERINI SUSANNE B 18 12:18:53 6:09:53
5189 MOLENAAR TOBIAS C 557 12:19:08 6:10:08
5190 VERSTRUTEN HANS F 787 12:19:29 6:10:29
5191 NAYLOR DAVID F 788 12:19:40 6:10:40
5192 SARGANT NICHOLAS D 1593 12:19:52 6:10:52
5193 CALLAERTS WIM E 1909 12:19:53 6:10:53
5194 RONNER GERRIT F 789 12:20:24 6:11:24
5195 RATZER JAMES D 1594 12:20:27 6:11:27
5196 OPMEER DENNIS D 1595 12:20:40 6:11:40
5197 LANKHUIJZEN SIMONE AB 83 12:20:44 6:11:44
5198 DERKS TYCHO D 1596 12:21:03 6:12:03
5199 RIJKENBARG JAN WILLEM D 1597 12:21:15 6:12:15
5200 WATTS HOWARD D 1598 12:21:37 6:12:37
5201 HARPER CLIVE E 1910 12:22:11 6:13:11
5202 KOLL CHRISTIAN D 1599 12:22:25 6:13:25
5203 KNUTSON JORGEN F 790 12:22:38 6:13:38
5204 DAMEN GERD E 1911 12:22:49 6:13:49
5205 GOETSCHALCKX WERNER D 1600 12:22:56 6:13:56
5206 MARTNETT JOHN JOE C 558 12:23:12 6:14:12
5207 MAUDE RUPERT F 791 12:23:14 6:14:14
5208 LOPEZ MARTINEZ JOAN MANEL G1 148 12:23:36 6:14:36
5209 KUMAR AMITESH C 559 12:24:52 6:15:52
5210 PERDON ALEXANDER D 1601 12:25:37 6:16:37
5211 VANDERSTUKKEN DAVY C 560 12:25:43 6:16:43
5212 PERSSON ANNELI AB 84 12:25:45 6:16:45
5213 HEIJNEMAN FRANS E 1912 12:25:48 6:16:48
5214 VAN OVERBEEKE KOO F 792 12:25:55 6:16:55
5215 DE JONG ROBERT C 561 12:26:09 6:17:09
5216 KEY CHRISTOPHER C 562 12:26:20 6:17:20
5217 PICHAT CORENTIN C 563 12:26:21 6:17:21
5218 PICHAT BRUNO E 1913 12:26:22 6:17:22
5219 SCHOLTE INEKE B 19 12:26:22 6:17:22
5220 KOPPERS WIEBE D 1602 12:26:34 6:17:34
5221 DECKERS DENNIS E 1914 12:26:39 6:17:39
5222 LERCHE SOEREN F 793 12:27:01 6:18:01
5223 URBANSKI ROMAN D 1603 12:27:35 6:18:35
5224 DUNNE PATRICK E 1915 12:27:44 6:18:44
5225 ANDERSON MICHAEL E 1916 12:27:49 6:18:49
5226 PETERSEN DENNIS BO E 1917 12:29:12 6:20:12
5227 PLATZ OLSEN KNUD G1 149 12:29:30 6:20:30
5228 LARSEN HENRIK BO E 1918 12:29:33 6:20:33
5229 SEGAAR MARC E 1919 12:30:00 6:21:00
5230 FLYNN PAUL F 794 12:30:31 6:21:31
5231 DE LEEW ARD C 564 12:30:35 6:21:35
5232 VAN DEN HOVEN GERT E 1920 12:31:18 6:22:18
5233 MARKHOFER THOMAS E 1921 12:31:25 6:22:25
5234 GROOTHUIS REMCO D 1604 12:31:35 6:22:35
5235 EKSTRAND JOHAN E 1922 12:31:50 6:22:50
5236 ZYMOWSKI MICHAEL E 1923 12:32:10 6:23:10
5237 BUTTERS JIM F 795 12:32:32 6:23:32
5238 VAN TIL WILLEM E 1924 12:33:19 6:24:19
5239 OSTYN WERNER G2 16 12:33:20 6:24:20
5240 VERBELEN JIM E 1925 12:33:44 6:24:44
5241 ASHTON-JONES AMELIA A 49 12:33:53 6:24:53
5242 WASSERMANN KARTSEN F 796 12:34:30 6:25:30
5243 DESSINGES FRANCOIS D 1605 12:34:32 6:25:32
5244 PIEPER RONALD D 1606 12:34:37 6:25:37
5245 NEWTON WILLIAM D 1607 12:34:50 6:25:50
5246 PETERSEN FINN E 1926 12:34:52 6:25:52
5247 JENSEN TOMMY F 797 12:36:04 6:27:04
5248 SANTONI ALESSANDRO E 1927 12:37:00 6:28:00
5249 ARCHER NEIL D 1608 12:38:33 6:29:33
5250 VASQUEZ FERNANDEZ FRANCESC XAVIER D 1609 12:38:43 6:29:43
5251 PRYOR MARK F 798 12:39:10 6:30:10
5252 DEBARDELEBEN DANIEL G1 150 12:39:16 6:30:16
5253 DRABBE JEROEN E 1928 12:39:19 6:30:19
5254 DIERICKX MARIANNA AB 85 12:39:29 6:30:29
5255 DERKS THEO F 799 12:39:50 6:30:50
5256 FIEGE ROLAND D 1610 12:40:28 6:31:28
5257 INNES CALUM F 800 12:40:30 6:31:30
5258 KAROLCZYK RYSZARD F 801 12:41:55 6:32:55
5259 TOBERG NICHOLAS C 565 12:42:15 6:33:15
5260 CHRISTIANSEN BENT E 1929 12:42:21 6:33:21
5261 WARNES JASON D 1611 12:42:41 6:33:41
5262 MCKENZIE-SMITH GARY D 1612 12:42:54 6:33:54
5263 VAN DE STEEG ROBERT D 1613 12:43:19 6:34:19
5264 HAWKINS ROBERT D 1614 12:43:43 6:34:43
5265 BALDI ROBERT D 1615 12:43:44 6:34:44
5266 BELLEFLAMME LUC F 802 12:44:51 6:35:51
5267 CAMERON RUSSELL E 1930 12:46:01 6:37:01
5268 GAYNOR CHARLIE E 1931 12:46:09 6:37:09
5269 CONNOLLY FRANCIS E 1932 12:46:10 6:37:10
5270 HANSEN JENS F 803 12:47:17 6:38:17
5271 CORNE PHILIPPE G1 151 12:47:22 6:38:22
5272 MISON CHRIS E 1933 12:48:15 6:39:15
5273 BALDAUF ANDREAS E 1934 12:49:57 6:40:57
5274 HUYSMANS FRANS G1 152 12:50:40 6:41:40
5275 WHITEHEAD SCOTT C 566 12:50:53 6:41:53
5276 BRIONNE CEDRIC D 1616 12:52:30 6:43:30
5277 BROUWER ANDRE E 1935 12:53:14 6:44:14
5278 ASSELMAN KIM D 1617 12:53:25 6:44:25
5279 BOM MICHIEL D 1618 12:55:33 6:46:33
5280 WESSON CONRAD D 1619 12:55:43 6:46:43
5281 VAN BECKHOVEN GERT JAN E 1936 12:55:49 6:46:49
5282 LJUNGQVIST FINN OTTO G1 153 12:56:11 6:47:11
5283 BECKERINGH ALLARD F 804 12:57:30 6:48:30
5284 COLOMER FELIX C 567 12:57:49 6:48:49
5285 ROCKNE KARL E 1937 12:58:07 6:49:07
5286 ASHRAFI REZA A 50 12:58:16 6:49:16
5287 PEDLEY DAVID E 1938 13:00:04 6:51:04
5288 CHRISTENSEN OLE F 805 13:01:45 6:52:45
5289 RIETHORST JURGEN D 1620 13:02:05 6:53:05
5290 HUMMEL ANDERS E 1939 13:02:42 6:53:42
5291 MICHELL KEVIN D 1621 13:03:15 6:54:15
5292 MEULENBERG MARINUS F 806 13:04:33 6:55:33
5293 LEMMENS KEVIN D 1622 13:05:06 6:56:06
5294 STUKART BEN F 807 13:06:37 6:57:37
5295 THOMSEN OLE G1 154 13:19:39 7:10:39

Haut 









Haut  
 Privé-site   Auteursrecht-Copyright : klik hier om te lezen !